Historique des mesures à Cassis (13260), France
Quotidien Résumé Octobre 7, 2017 Unités:  Métrique    US   Métrique/US
« Précédent (Jour)
Suivant (Jour) »
Quotidien Hebdomadaire Mensuel Annuel Période au choix
  Maximum: Minimum: Moyenne:
Température: TemperatureC °C 14.9 °C 16.3 °C
Point de rosée: DewpointC °C 1.4 °C 5 °C
Humidité: Humidity % 33 % 45 %
Vitesse du vent: 0 km/h 0 km/h 6.9 km/h
Rafales: 0 km/h - -
Vent:- - SE
Pression: PressurehPa hPa 1012.8 hPa -
Précipitations: 0.0 mm    
Historical Graphs
 
 
Mesures pour : Octobre 7, 2017
Heure Temperature Point de rosée Pression Vent Vitesse du vent Rafales Humidité Pluie (par heure) Conditions
TemperatureC °C DewpointC °C PressurehPa hPa Calm     Humidity % HourlyPrecipMM mm SoftwareType W/m2
00:11 14.9 °C 3.3 °C 1012.8 hPa North 19.6 km/h 30.1 km/h 46 % 0.0 mm open2300-1.11 W/m2
01:11 15.2 °C 2.9 °C 1013.1 hPa NNW 29.5 km/h 29.5 km/h 44 % 0.0 mm open2300-1.11 W/m2
02:11 15.6 °C 2.3 °C 1014.1 hPa NNW 4.7 km/h 4.7 km/h 41 % 0.0 mm open2300-1.11 W/m2
03:11 15.3 °C 2.1 °C 1014.8 hPa NNE 4.7 km/h 8 km/h 41 % 0.0 mm open2300-1.11 W/m2
05:11 15.1 °C 1.9 °C 1016.1 hPa North 8 km/h 8 km/h 41 % 0.0 mm open2300-1.11 W/m2
06:11 15.3 °C 1.8 °C 1016.8 hPa NNE 7.6 km/h 9.3 km/h 40 % 0.0 mm open2300-1.11 W/m2
07:11 15.1 °C 1.6 °C 1017.5 hPa NNE 5.6 km/h 5.6 km/h 40 % 0.0 mm open2300-1.11 W/m2
08:11 14.9 °C 1.4 °C 1017.8 hPa North 5.6 km/h 9.3 km/h 40 % 0.0 mm open2300-1.11 W/m2
09:11 15.9 °C 2.6 °C 1018.2 hPa SE 2.3 km/h 2.3 km/h 41 % 0.0 mm open2300-1.11 W/m2
10:11 17.0 °C 3.9 °C 1018.5 hPa South 3.4 km/h 3.4 km/h 42 % 0.0 mm open2300-1.11 W/m2
11:11 17.9 °C 6.0 °C 1018.8 hPa SSE 5.6 km/h 14.5 km/h 46 % 0.0 mm open2300-1.11 W/m2
12:11 19.8 °C 6.8 °C 1018.8 hPa SSE 9.3 km/h 10.3 km/h 43 % 0.0 mm open2300-1.11 W/m2
13:11 20.6 °C 6.6 °C 1018.5 hPa SSE 11.6 km/h 11.6 km/h 40 % 0.0 mm open2300-1.11 W/m2
14:11 20.4 °C 8.7 °C 1018.5 hPa SE 9.3 km/h 10.3 km/h 47 % 0.0 mm open2300-1.11 W/m2
15:11 20.8 °C 5.9 °C 1017.8 hPa SSE 7.6 km/h 8.9 km/h 38 % 0.0 mm open2300-1.11 W/m2
16:11 21.4 °C 4.4 °C 1017.5 hPa NW 5.6 km/h 13.2 km/h 33 % 0.0 mm open2300-1.11 W/m2
18:11 19.2 °C 9.1 °C 1016.8 hPa Calm   8.9 km/h 52 % 0.0 mm open2300-1.11 W/m2
19:11 17.9 °C 9.4 °C 1017.2 hPa Calm     58 % 0.0 mm open2300-1.11 W/m2
20:11 16.2 °C 7.9 °C 1017.2 hPa North 3.4 km/h 3.4 km/h 58 % 0.0 mm open2300-1.11 W/m2
21:11 15.3 °C 7.6 °C 1017.2 hPa NNW 15.6 km/h 15.6 km/h 60 % 0.0 mm open2300-1.11 W/m2
22:11 15.1 °C 9.4 °C 1017.2 hPa Calm   5.1 km/h 69 % 0.0 mm open2300-1.11 W/m2
23:11 15.0 °C 10.0 °C 1017.2 hPa Calm   4.2 km/h 72 % 0.0 mm open2300-1.11 W/m2
Observations météo à CASSIS
WU-History script by Weather Underground - 1 mb